Portada
METAR-TAF:

METAR-TAF

Aeropuertos :

Aeropuerto Internacional de Pohnpei

Pohnpei, Micronesia

latitud: 06-59N, longitud: 158-12E, altitud: 2 m

METAR: falta

Hora: 09:08 (22:08 UTC)

Pronóstico

El informe se hizo hace 22 horas y 40 minutos, a las 23:28 UTC
Pronóstico válido del 01 a las 00 UTC al 01 a las 24 UTC
Viento 11 kt del este-noreste con ráfagas de 18 kt
Visibilidad: 10 km
Nubes dispersas a una altura de 1800 ft
Nubes dispersas a una altura de 14000 ft
chaparrones en las proximidades
Temporalmente
del 01 a las 00 UTC al 01 a las 02 UTC
Cielo nuboso a una altura de 1800 ft
chaparrones de lluvia

TAF: PTPN 312328Z 0100/0124 06011G18KT P6SM VCSH SCT018 SCT140 TEMPO 0100/0102 -SHRA BKN018

Observaciones y pronósticos meteorológicos de más de 4000 aeropuertos (mensajes METAR y TAF).

Los puntos amarillos y rojos representan las estaciones disponibles.

Ponga el ratón en el punto deseado para ver el nombre de la estación.

Haga clic para ver las observaciones y los pronósticos meteorológicos.

Para cambiar el mapa : haga clic en los botones verdes con una cruz de color negro para hacer un zoom, en el botón verde con un guión para alejar o en las flechas verdes para mapas adyacentes.


METAR-TAF: